sensor_id;sensor_type;location;lat;lon;timestamp;P1;durP1;ratioP1;P2;durP2;ratioP2
34583;SDS011;53696;52.738;4.752;2023-04-24T00:00:01;5.95;;;2.25;;
34583;SDS011;53696;52.738;4.752;2023-04-24T00:02:32;4.20;;;2.55;;
34583;SDS011;53696;52.738;4.752;2023-04-24T00:05:01;2.10;;;1.90;;
34583;SDS011;53696;52.738;4.752;2023-04-24T00:07:29;4.35;;;2.58;;
34583;SDS011;53696;52.738;4.752;2023-04-24T00:09:57;5.13;;;2.55;;
34583;SDS011;53696;52.738;4.752;2023-04-24T00:12:25;4.68;;;2.63;;
34583;SDS011;53696;52.738;4.752;2023-04-24T00:14:53;4.43;;;2.20;;
34583;SDS011;53696;52.738;4.752;2023-04-24T00:17:20;7.15;;;2.25;;
34583;SDS011;53696;52.738;4.752;2023-04-24T00:19:50;4.25;;;2.50;;
34583;SDS011;53696;52.738;4.752;2023-04-24T00:22:24;3.50;;;2.33;;
34583;SDS011;53696;52.738;4.752;2023-04-24T00:24:52;3.55;;;2.00;;
34583;SDS011;53696;52.738;4.752;2023-04-24T00:27:19;5.10;;;2.30;;
34583;SDS011;53696;52.738;4.752;2023-04-24T00:29:47;3.00;;;1.95;;
34583;SDS011;53696;52.738;4.752;2023-04-24T00:32:15;3.17;;;2.20;;
34583;SDS011;53696;52.738;4.752;2023-04-24T00:34:44;4.22;;;2.22;;
34583;SDS011;53696;52.738;4.752;2023-04-24T00:37:13;2.88;;;2.13;;
34583;SDS011;53696;52.738;4.752;2023-04-24T00:39:41;4.53;;;2.40;;
34583;SDS011;53696;52.738;4.752;2023-04-24T00:42:09;2.70;;;1.67;;
34583;SDS011;53696;52.738;4.752;2023-04-24T00:44:37;3.42;;;2.17;;
34583;SDS011;53696;52.738;4.752;2023-04-24T00:47:05;2.05;;;1.73;;
34583;SDS011;53696;52.738;4.752;2023-04-24T00:49:33;3.30;;;2.33;;
34583;SDS011;53696;52.738;4.752;2023-04-24T00:52:01;3.95;;;2.28;;
34583;SDS011;53696;52.738;4.752;2023-04-24T00:54:30;2.67;;;2.03;;
34583;SDS011;53696;52.738;4.752;2023-04-24T00:56:57;2.60;;;1.65;;
34583;SDS011;53696;52.738;4.752;2023-04-24T00:59:25;2.58;;;1.90;;
34583;SDS011;53696;52.738;4.752;2023-04-24T01:01:52;3.25;;;2.47;;
34583;SDS011;53696;52.738;4.752;2023-04-24T01:04:21;3.38;;;1.95;;
34583;SDS011;53696;52.738;4.752;2023-04-24T01:06:49;2.78;;;1.83;;
34583;SDS011;53696;52.738;4.752;2023-04-24T01:09:18;3.10;;;1.60;;
34583;SDS011;53696;52.738;4.752;2023-04-24T01:11:48;2.00;;;1.42;;
34583;SDS011;53696;52.738;4.752;2023-04-24T01:14:17;2.80;;;1.60;;
34583;SDS011;53696;52.738;4.752;2023-04-24T01:16:44;4.13;;;1.80;;
34583;SDS011;53696;52.738;4.752;2023-04-24T01:19:12;2.83;;;2.17;;
34583;SDS011;53696;52.738;4.752;2023-04-24T01:21:43;3.08;;;2.03;;
34583;SDS011;53696;52.738;4.752;2023-04-24T01:24:12;2.80;;;1.88;;
34583;SDS011;53696;52.738;4.752;2023-04-24T01:26:40;1.90;;;1.80;;
34583;SDS011;53696;52.738;4.752;2023-04-24T01:29:08;2.00;;;1.80;;
34583;SDS011;53696;52.738;4.752;2023-04-24T01:31:36;3.80;;;1.88;;
34583;SDS011;53696;52.738;4.752;2023-04-24T01:34:04;2.33;;;1.48;;
34583;SDS011;53696;52.738;4.752;2023-04-24T01:36:32;2.47;;;1.80;;
34583;SDS011;53696;52.738;4.752;2023-04-24T01:39:02;2.10;;;1.50;;
34583;SDS011;53696;52.738;4.752;2023-04-24T01:41:31;2.47;;;1.58;;
34583;SDS011;53696;52.738;4.752;2023-04-24T01:43:59;2.53;;;1.70;;
34583;SDS011;53696;52.738;4.752;2023-04-24T01:46:27;3.00;;;1.70;;
34583;SDS011;53696;52.738;4.752;2023-04-24T01:48:55;3.40;;;1.67;;
34583;SDS011;53696;52.738;4.752;2023-04-24T01:51:23;2.30;;;1.50;;
34583;SDS011;53696;52.738;4.752;2023-04-24T01:53:51;3.33;;;1.33;;
34583;SDS011;53696;52.738;4.752;2023-04-24T01:56:19;2.05;;;1.50;;
34583;SDS011;53696;52.738;4.752;2023-04-24T01:58:48;1.65;;;1.55;;
34583;SDS011;53696;52.738;4.752;2023-04-24T02:01:17;1.88;;;1.50;;
34583;SDS011;53696;52.738;4.752;2023-04-24T02:03:46;4.18;;;2.03;;
34583;SDS011;53696;52.738;4.752;2023-04-24T02:06:14;2.45;;;1.42;;
34583;SDS011;53696;52.738;4.752;2023-04-24T02:08:42;1.92;;;1.45;;
34583;SDS011;53696;52.738;4.752;2023-04-24T02:11:09;1.85;;;1.48;;
34583;SDS011;53696;52.738;4.752;2023-04-24T02:13:37;3.40;;;1.55;;
34583;SDS011;53696;52.738;4.752;2023-04-24T02:16:06;3.30;;;2.20;;
34583;SDS011;53696;52.738;4.752;2023-04-24T02:18:34;3.17;;;2.03;;
34583;SDS011;53696;52.738;4.752;2023-04-24T02:21:01;1.88;;;1.73;;
34583;SDS011;53696;52.738;4.752;2023-04-24T02:23:29;2.58;;;1.55;;
34583;SDS011;53696;52.738;4.752;2023-04-24T02:25:56;1.95;;;1.58;;
34583;SDS011;53696;52.738;4.752;2023-04-24T02:28:24;2.22;;;1.50;;
34583;SDS011;53696;52.738;4.752;2023-04-24T02:30:52;2.58;;;1.48;;
34583;SDS011;53696;52.738;4.752;2023-04-24T02:33:21;2.13;;;1.60;;
34583;SDS011;53696;52.738;4.752;2023-04-24T02:35:48;2.78;;;1.70;;
34583;SDS011;53696;52.738;4.752;2023-04-24T02:38:16;2.17;;;1.45;;
34583;SDS011;53696;52.738;4.752;2023-04-24T02:40:44;3.05;;;1.90;;
34583;SDS011;53696;52.738;4.752;2023-04-24T02:43:11;2.97;;;1.73;;
34583;SDS011;53696;52.738;4.752;2023-04-24T02:45:39;2.50;;;1.60;;
34583;SDS011;53696;52.738;4.752;2023-04-24T02:48:07;1.42;;;1.30;;
34583;SDS011;53696;52.738;4.752;2023-04-24T02:50:36;3.38;;;1.77;;
34583;SDS011;53696;52.738;4.752;2023-04-24T02:53:03;3.13;;;1.63;;
34583;SDS011;53696;52.738;4.752;2023-04-24T02:55:31;2.97;;;1.65;;
34583;SDS011;53696;52.738;4.752;2023-04-24T02:57:59;2.97;;;1.60;;
34583;SDS011;53696;52.738;4.752;2023-04-24T03:00:27;1.67;;;1.40;;
34583;SDS011;53696;52.738;4.752;2023-04-24T03:02:54;3.17;;;1.60;;
34583;SDS011;53696;52.738;4.752;2023-04-24T03:05:22;2.00;;;1.80;;
34583;SDS011;53696;52.738;4.752;2023-04-24T03:07:51;2.10;;;1.73;;
34583;SDS011;53696;52.738;4.752;2023-04-24T03:10:19;1.83;;;1.35;;
34583;SDS011;53696;52.738;4.752;2023-04-24T03:12:48;2.50;;;1.80;;
34583;SDS011;53696;52.738;4.752;2023-04-24T03:15:16;2.13;;;1.73;;
34583;SDS011;53696;52.738;4.752;2023-04-24T03:17:44;3.80;;;1.65;;
34583;SDS011;53696;52.738;4.752;2023-04-24T03:20:11;3.47;;;1.70;;
34583;SDS011;53696;52.738;4.752;2023-04-24T03:22:39;3.92;;;1.85;;
34583;SDS011;53696;52.738;4.752;2023-04-24T03:25:09;2.65;;;1.77;;
34583;SDS011;53696;52.738;4.752;2023-04-24T03:27:36;2.08;;;1.48;;
34583;SDS011;53696;52.738;4.752;2023-04-24T03:30:06;2.83;;;1.63;;
34583;SDS011;53696;52.738;4.752;2023-04-24T03:32:35;2.03;;;1.55;;
34583;SDS011;53696;52.738;4.752;2023-04-24T03:35:02;2.17;;;1.80;;
34583;SDS011;53696;52.738;4.752;2023-04-24T03:37:30;2.50;;;1.90;;
34583;SDS011;53696;52.738;4.752;2023-04-24T03:39:58;3.13;;;1.73;;
34583;SDS011;53696;52.738;4.752;2023-04-24T03:42:27;2.08;;;1.88;;
34583;SDS011;53696;52.738;4.752;2023-04-24T03:44:54;2.47;;;1.65;;
34583;SDS011;53696;52.738;4.752;2023-04-24T03:47:22;2.92;;;1.98;;
34583;SDS011;53696;52.738;4.752;2023-04-24T03:49:50;2.08;;;1.75;;
34583;SDS011;53696;52.738;4.752;2023-04-24T03:52:18;2.00;;;1.80;;
34583;SDS011;53696;52.738;4.752;2023-04-24T03:54:46;2.70;;;1.63;;
34583;SDS011;53696;52.738;4.752;2023-04-24T03:57:13;2.90;;;1.65;;
34583;SDS011;53696;52.738;4.752;2023-04-24T03:59:42;3.20;;;1.73;;
34583;SDS011;53696;52.738;4.752;2023-04-24T04:02:10;1.65;;;1.48;;
34583;SDS011;53696;52.738;4.752;2023-04-24T04:04:38;3.13;;;1.80;;
34583;SDS011;53696;52.738;4.752;2023-04-24T04:07:06;3.63;;;1.65;;
34583;SDS011;53696;52.738;4.752;2023-04-24T04:09:34;1.85;;;1.25;;
34583;SDS011;53696;52.738;4.752;2023-04-24T04:12:01;2.60;;;1.67;;
34583;SDS011;53696;52.738;4.752;2023-04-24T04:14:29;1.60;;;1.50;;
34583;SDS011;53696;52.738;4.752;2023-04-24T04:16:58;4.57;;;1.60;;
34583;SDS011;53696;52.738;4.752;2023-04-24T04:19:26;2.05;;;1.45;;
34583;SDS011;53696;52.738;4.752;2023-04-24T04:21:53;1.67;;;1.30;;
34583;SDS011;53696;52.738;4.752;2023-04-24T04:24:22;2.30;;;1.30;;
34583;SDS011;53696;52.738;4.752;2023-04-24T04:26:50;2.00;;;1.13;;
34583;SDS011;53696;52.738;4.752;2023-04-24T04:29:18;1.40;;;1.30;;
34583;SDS011;53696;52.738;4.752;2023-04-24T04:31:46;3.50;;;1.88;;
34583;SDS011;53696;52.738;4.752;2023-04-24T04:34:15;2.42;;;1.25;;
34583;SDS011;53696;52.738;4.752;2023-04-24T04:36:42;1.98;;;1.23;;
34583;SDS011;53696;52.738;4.752;2023-04-24T04:39:10;2.42;;;1.40;;
34583;SDS011;53696;52.738;4.752;2023-04-24T04:41:40;1.98;;;1.58;;
34583;SDS011;53696;52.738;4.752;2023-04-24T04:44:08;1.10;;;1.02;;
34583;SDS011;53696;52.738;4.752;2023-04-24T04:46:36;1.08;;;0.98;;
34583;SDS011;53696;52.738;4.752;2023-04-24T04:49:04;2.28;;;1.35;;
34583;SDS011;53696;52.738;4.752;2023-04-24T04:51:33;2.88;;;1.58;;
34583;SDS011;53696;52.738;4.752;2023-04-24T04:54:01;2.63;;;1.30;;
34583;SDS011;53696;52.738;4.752;2023-04-24T04:56:29;4.05;;;1.60;;
34583;SDS011;53696;52.738;4.752;2023-04-24T04:58:57;2.70;;;1.50;;
34583;SDS011;53696;52.738;4.752;2023-04-24T05:01:25;3.10;;;1.42;;
34583;SDS011;53696;52.738;4.752;2023-04-24T05:03:53;3.95;;;2.17;;
34583;SDS011;53696;52.738;4.752;2023-04-24T05:06:21;3.92;;;1.70;;
34583;SDS011;53696;52.738;4.752;2023-04-24T05:08:51;1.77;;;1.52;;
34583;SDS011;53696;52.738;4.752;2023-04-24T05:11:23;3.35;;;1.77;;
34583;SDS011;53696;52.738;4.752;2023-04-24T05:13:50;2.40;;;1.52;;
34583;SDS011;53696;52.738;4.752;2023-04-24T05:16:18;3.40;;;1.98;;
34583;SDS011;53696;52.738;4.752;2023-04-24T05:18:46;2.78;;;1.67;;
34583;SDS011;53696;52.738;4.752;2023-04-24T05:21:13;2.75;;;2.10;;
34583;SDS011;53696;52.738;4.752;2023-04-24T05:23:41;3.45;;;1.88;;
34583;SDS011;53696;52.738;4.752;2023-04-24T05:26:10;2.45;;;1.90;;
34583;SDS011;53696;52.738;4.752;2023-04-24T05:28:37;2.58;;;1.70;;
34583;SDS011;53696;52.738;4.752;2023-04-24T05:31:05;2.08;;;1.83;;
34583;SDS011;53696;52.738;4.752;2023-04-24T05:33:33;3.05;;;1.70;;
34583;SDS011;53696;52.738;4.752;2023-04-24T05:36:00;3.42;;;1.75;;
34583;SDS011;53696;52.738;4.752;2023-04-24T05:38:28;3.33;;;1.90;;
34583;SDS011;53696;52.738;4.752;2023-04-24T05:40:56;4.93;;;2.10;;
34583;SDS011;53696;52.738;4.752;2023-04-24T05:43:25;3.25;;;2.17;;
34583;SDS011;53696;52.738;4.752;2023-04-24T05:45:52;3.08;;;2.10;;
34583;SDS011;53696;52.738;4.752;2023-04-24T05:48:21;2.63;;;2.10;;
34583;SDS011;53696;52.738;4.752;2023-04-24T05:50:49;3.08;;;2.00;;
34583;SDS011;53696;52.738;4.752;2023-04-24T05:53:18;1.95;;;1.77;;
34583;SDS011;53696;52.738;4.752;2023-04-24T05:55:46;3.45;;;1.77;;
34583;SDS011;53696;52.738;4.752;2023-04-24T05:58:14;4.35;;;1.90;;
34583;SDS011;53696;52.738;4.752;2023-04-24T06:00:43;2.70;;;2.08;;
34583;SDS011;53696;52.738;4.752;2023-04-24T06:03:12;2.53;;;1.95;;
34583;SDS011;53696;52.738;4.752;2023-04-24T06:05:42;2.83;;;1.92;;
34583;SDS011;53696;52.738;4.752;2023-04-24T06:08:09;2.35;;;1.90;;
34583;SDS011;53696;52.738;4.752;2023-04-24T06:10:37;2.58;;;1.67;;
34583;SDS011;53696;52.738;4.752;2023-04-24T06:13:05;2.53;;;2.30;;
34583;SDS011;53696;52.738;4.752;2023-04-24T06:15:33;5.70;;;2.30;;
34583;SDS011;53696;52.738;4.752;2023-04-24T06:18:02;2.90;;;2.15;;
34583;SDS011;53696;52.738;4.752;2023-04-24T06:20:30;3.20;;;1.85;;
34583;SDS011;53696;52.738;4.752;2023-04-24T06:22:58;3.20;;;1.70;;
34583;SDS011;53696;52.738;4.752;2023-04-24T06:25:25;2.08;;;1.70;;
34583;SDS011;53696;52.738;4.752;2023-04-24T06:27:53;4.50;;;2.10;;
34583;SDS011;53696;52.738;4.752;2023-04-24T06:30:22;2.67;;;1.92;;
34583;SDS011;53696;52.738;4.752;2023-04-24T06:32:50;4.38;;;2.53;;
34583;SDS011;53696;52.738;4.752;2023-04-24T06:35:19;2.17;;;1.98;;
34583;SDS011;53696;52.738;4.752;2023-04-24T06:37:47;3.17;;;2.05;;
34583;SDS011;53696;52.738;4.752;2023-04-24T06:40:14;3.35;;;1.92;;
34583;SDS011;53696;52.738;4.752;2023-04-24T06:42:44;2.90;;;2.17;;
34583;SDS011;53696;52.738;4.752;2023-04-24T06:45:12;3.10;;;2.20;;
34583;SDS011;53696;52.738;4.752;2023-04-24T06:47:39;3.22;;;2.25;;
34583;SDS011;53696;52.738;4.752;2023-04-24T06:50:07;2.35;;;2.00;;
34583;SDS011;53696;52.738;4.752;2023-04-24T06:52:37;2.30;;;1.90;;
34583;SDS011;53696;52.738;4.752;2023-04-24T06:55:05;2.55;;;1.90;;
34583;SDS011;53696;52.738;4.752;2023-04-24T06:57:34;4.05;;;2.67;;
34583;SDS011;53696;52.738;4.752;2023-04-24T07:00:02;3.78;;;1.80;;
34583;SDS011;53696;52.738;4.752;2023-04-24T07:02:31;3.45;;;2.30;;
34583;SDS011;53696;52.738;4.752;2023-04-24T07:04:58;3.47;;;2.15;;
34583;SDS011;53696;52.738;4.752;2023-04-24T07:07:27;3.20;;;2.10;;
34583;SDS011;53696;52.738;4.752;2023-04-24T07:09:56;3.78;;;2.20;;
34583;SDS011;53696;52.738;4.752;2023-04-24T07:12:24;3.53;;;2.40;;
34583;SDS011;53696;52.738;4.752;2023-04-24T07:14:52;2.47;;;2.08;;
34583;SDS011;53696;52.738;4.752;2023-04-24T07:17:20;4.68;;;2.00;;
34583;SDS011;53696;52.738;4.752;2023-04-24T07:19:48;2.80;;;2.00;;
34583;SDS011;53696;52.738;4.752;2023-04-24T07:22:16;3.88;;;1.92;;
34583;SDS011;53696;52.738;4.752;2023-04-24T07:24:44;3.60;;;2.28;;
34583;SDS011;53696;52.738;4.752;2023-04-24T07:27:13;3.78;;;2.25;;
34583;SDS011;53696;52.738;4.752;2023-04-24T07:29:41;3.78;;;2.10;;
34583;SDS011;53696;52.738;4.752;2023-04-24T07:32:11;3.22;;;1.95;;
34583;SDS011;53696;52.738;4.752;2023-04-24T07:34:39;3.70;;;1.88;;
34583;SDS011;53696;52.738;4.752;2023-04-24T07:37:06;4.20;;;2.50;;
34583;SDS011;53696;52.738;4.752;2023-04-24T07:39:34;4.82;;;2.28;;
34583;SDS011;53696;52.738;4.752;2023-04-24T07:42:02;3.28;;;2.30;;
34583;SDS011;53696;52.738;4.752;2023-04-24T07:44:31;3.85;;;1.90;;
34583;SDS011;53696;52.738;4.752;2023-04-24T07:46:59;4.78;;;2.20;;
34583;SDS011;53696;52.738;4.752;2023-04-24T07:49:27;3.72;;;2.50;;
34583;SDS011;53696;52.738;4.752;2023-04-24T07:51:55;4.22;;;2.15;;
34583;SDS011;53696;52.738;4.752;2023-04-24T07:54:22;4.32;;;2.38;;
34583;SDS011;53696;52.738;4.752;2023-04-24T07:56:50;5.53;;;2.47;;
34583;SDS011;53696;52.738;4.752;2023-04-24T07:59:17;7.57;;;2.20;;
34583;SDS011;53696;52.738;4.752;2023-04-24T08:01:46;7.63;;;2.08;;
34583;SDS011;53696;52.738;4.752;2023-04-24T08:04:14;8.35;;;2.70;;
34583;SDS011;53696;52.738;4.752;2023-04-24T08:06:42;8.98;;;2.17;;
34583;SDS011;53696;52.738;4.752;2023-04-24T08:09:10;7.10;;;2.10;;
34583;SDS011;53696;52.738;4.752;2023-04-24T08:11:38;4.30;;;2.20;;
34583;SDS011;53696;52.738;4.752;2023-04-24T08:14:05;5.45;;;1.80;;
34583;SDS011;53696;52.738;4.752;2023-04-24T08:16:34;2.78;;;2.10;;
34583;SDS011;53696;52.738;4.752;2023-04-24T08:19:04;7.10;;;1.95;;
34583;SDS011;53696;52.738;4.752;2023-04-24T08:21:32;7.07;;;2.33;;
34583;SDS011;53696;52.738;4.752;2023-04-24T08:24:00;4.53;;;2.35;;
34583;SDS011;53696;52.738;4.752;2023-04-24T08:26:31;4.90;;;1.95;;
34583;SDS011;53696;52.738;4.752;2023-04-24T08:28:59;3.47;;;1.58;;
34583;SDS011;53696;52.738;4.752;2023-04-24T08:31:27;4.07;;;1.85;;
34583;SDS011;53696;52.738;4.752;2023-04-24T08:33:55;5.25;;;1.60;;
34583;SDS011;53696;52.738;4.752;2023-04-24T08:36:24;5.88;;;2.03;;
34583;SDS011;53696;52.738;4.752;2023-04-24T08:39:08;6.57;;;1.92;;
34583;SDS011;53696;52.738;4.752;2023-04-24T08:41:36;4.15;;;1.58;;
34583;SDS011;53696;52.738;4.752;2023-04-24T08:44:05;3.72;;;1.73;;
34583;SDS011;53696;52.738;4.752;2023-04-24T08:46:36;4.22;;;1.77;;
34583;SDS011;53696;52.738;4.752;2023-04-24T08:49:04;5.93;;;1.95;;
34583;SDS011;53696;52.738;4.752;2023-04-24T08:51:34;4.40;;;1.98;;
34583;SDS011;53696;52.738;4.752;2023-04-24T08:54:04;3.40;;;1.60;;
34583;SDS011;53696;52.738;4.752;2023-04-24T08:56:33;5.45;;;1.88;;
34583;SDS011;53696;52.738;4.752;2023-04-24T09:01:33;3.05;;;1.48;;
34583;SDS011;53696;52.738;4.752;2023-04-24T09:04:02;3.47;;;1.92;;
34583;SDS011;53696;52.738;4.752;2023-04-24T09:06:31;3.17;;;1.67;;
34583;SDS011;53696;52.738;4.752;2023-04-24T09:09:01;3.20;;;1.60;;
34583;SDS011;53696;52.738;4.752;2023-04-24T09:11:30;2.88;;;1.50;;
34583;SDS011;53696;52.738;4.752;2023-04-24T09:13:59;3.28;;;1.50;;
34583;SDS011;53696;52.738;4.752;2023-04-24T09:16:28;5.30;;;1.30;;
34583;SDS011;53696;52.738;4.752;2023-04-24T09:18:56;3.13;;;1.75;;
34583;SDS011;53696;52.738;4.752;2023-04-24T09:21:24;1.75;;;1.42;;
34583;SDS011;53696;52.738;4.752;2023-04-24T09:24:00;6.90;;;1.88;;
34583;SDS011;53696;52.738;4.752;2023-04-24T09:26:29;4.75;;;1.65;;
34583;SDS011;53696;52.738;4.752;2023-04-24T09:31:29;2.65;;;1.80;;
34583;SDS011;53696;52.738;4.752;2023-04-24T09:33:59;7.75;;;2.20;;
34583;SDS011;53696;52.738;4.752;2023-04-24T09:36:32;4.68;;;1.83;;
34583;SDS011;53696;52.738;4.752;2023-04-24T09:39:05;5.80;;;1.80;;
34583;SDS011;53696;52.738;4.752;2023-04-24T09:41:34;4.07;;;1.95;;
34583;SDS011;53696;52.738;4.752;2023-04-24T09:44:10;7.43;;;2.40;;
34583;SDS011;53696;52.738;4.752;2023-04-24T09:46:40;9.45;;;2.20;;
34583;SDS011;53696;52.738;4.752;2023-04-24T09:49:09;7.13;;;2.00;;
34583;SDS011;53696;52.738;4.752;2023-04-24T09:51:40;5.53;;;2.08;;
34583;SDS011;53696;52.738;4.752;2023-04-24T09:54:14;4.72;;;1.90;;
34583;SDS011;53696;52.738;4.752;2023-04-24T09:56:47;5.28;;;2.00;;
34583;SDS011;53696;52.738;4.752;2023-04-24T09:59:17;6.50;;;2.00;;
34583;SDS011;53696;52.738;4.752;2023-04-24T10:01:48;6.27;;;1.63;;
34583;SDS011;53696;52.738;4.752;2023-04-24T10:04:17;6.80;;;2.08;;
34583;SDS011;53696;52.738;4.752;2023-04-24T10:06:48;3.37;;;1.73;;
34583;SDS011;53696;52.738;4.752;2023-04-24T10:09:18;7.03;;;2.00;;
34583;SDS011;53696;52.738;4.752;2023-04-24T10:11:48;9.05;;;2.35;;
34583;SDS011;53696;52.738;4.752;2023-04-24T10:14:17;5.93;;;2.03;;
34583;SDS011;53696;52.738;4.752;2023-04-24T10:16:46;6.50;;;1.50;;
34583;SDS011;53696;52.738;4.752;2023-04-24T10:19:16;12.95;;;2.22;;
34583;SDS011;53696;52.738;4.752;2023-04-24T10:21:46;4.35;;;2.17;;
34583;SDS011;53696;52.738;4.752;2023-04-24T10:24:14;9.90;;;2.08;;
34583;SDS011;53696;52.738;4.752;2023-04-24T10:26:45;11.35;;;2.33;;
34583;SDS011;53696;52.738;4.752;2023-04-24T10:29:16;7.10;;;2.10;;
34583;SDS011;53696;52.738;4.752;2023-04-24T10:31:45;12.80;;;2.90;;
34583;SDS011;53696;52.738;4.752;2023-04-24T10:34:14;5.70;;;1.75;;
34583;SDS011;53696;52.738;4.752;2023-04-24T10:36:45;10.35;;;1.95;;
34583;SDS011;53696;52.738;4.752;2023-04-24T10:39:16;8.40;;;2.20;;
34583;SDS011;53696;52.738;4.752;2023-04-24T10:41:46;8.70;;;2.13;;
34583;SDS011;53696;52.738;4.752;2023-04-24T10:44:16;13.65;;;2.92;;
34583;SDS011;53696;52.738;4.752;2023-04-24T10:46:44;10.82;;;1.80;;
34583;SDS011;53696;52.738;4.752;2023-04-24T10:49:13;4.28;;;2.00;;
34583;SDS011;53696;52.738;4.752;2023-04-24T10:51:45;6.13;;;1.80;;
34583;SDS011;53696;52.738;4.752;2023-04-24T10:54:24;9.93;;;2.17;;
34583;SDS011;53696;52.738;4.752;2023-04-24T10:57:00;6.70;;;2.35;;
34583;SDS011;53696;52.738;4.752;2023-04-24T11:00:10;9.23;;;2.05;;
34583;SDS011;53696;52.738;4.752;2023-04-24T11:02:41;5.20;;;1.63;;
34583;SDS011;53696;52.738;4.752;2023-04-24T11:05:15;4.40;;;1.73;;
34583;SDS011;53696;52.738;4.752;2023-04-24T11:10:46;6.97;;;1.75;;
34583;SDS011;53696;52.738;4.752;2023-04-24T11:13:16;3.63;;;1.60;;
34583;SDS011;53696;52.738;4.752;2023-04-24T11:15:44;4.28;;;1.90;;
34583;SDS011;53696;52.738;4.752;2023-04-24T11:18:13;3.90;;;1.67;;
34583;SDS011;53696;52.738;4.752;2023-04-24T11:20:42;6.47;;;1.70;;
34583;SDS011;53696;52.738;4.752;2023-04-24T11:23:11;6.82;;;1.65;;
34583;SDS011;53696;52.738;4.752;2023-04-24T11:25:40;3.05;;;1.67;;
34583;SDS011;53696;52.738;4.752;2023-04-24T11:28:08;2.80;;;1.30;;
34583;SDS011;53696;52.738;4.752;2023-04-24T11:30:43;2.72;;;1.45;;
34583;SDS011;53696;52.738;4.752;2023-04-24T11:33:11;4.60;;;2.00;;
34583;SDS011;53696;52.738;4.752;2023-04-24T11:35:39;3.00;;;1.58;;
34583;SDS011;53696;52.738;4.752;2023-04-24T11:38:07;5.15;;;1.60;;
34583;SDS011;53696;52.738;4.752;2023-04-24T11:40:50;4.38;;;1.48;;
34583;SDS011;53696;52.738;4.752;2023-04-24T11:43:20;4.43;;;2.00;;
34583;SDS011;53696;52.738;4.752;2023-04-24T11:45:48;4.75;;;1.70;;
34583;SDS011;53696;52.738;4.752;2023-04-24T11:48:18;3.70;;;1.40;;
34583;SDS011;53696;52.738;4.752;2023-04-24T11:50:48;3.72;;;1.80;;
34583;SDS011;53696;52.738;4.752;2023-04-24T11:53:16;5.63;;;1.63;;
34583;SDS011;53696;52.738;4.752;2023-04-24T11:55:46;5.60;;;1.50;;
34583;SDS011;53696;52.738;4.752;2023-04-24T11:58:14;3.67;;;1.58;;
34583;SDS011;53696;52.738;4.752;2023-04-24T12:00:43;14.45;;;1.73;;
34583;SDS011;53696;52.738;4.752;2023-04-24T12:03:12;2.45;;;1.52;;
34583;SDS011;53696;52.738;4.752;2023-04-24T12:05:40;4.25;;;1.65;;
34583;SDS011;53696;52.738;4.752;2023-04-24T12:08:08;2.00;;;1.30;;
34583;SDS011;53696;52.738;4.752;2023-04-24T12:10:36;5.53;;;2.75;;
34583;SDS011;53696;52.738;4.752;2023-04-24T12:13:03;1.92;;;1.30;;
34583;SDS011;53696;52.738;4.752;2023-04-24T12:15:31;4.15;;;1.40;;
34583;SDS011;53696;52.738;4.752;2023-04-24T12:18:00;3.72;;;1.40;;
34583;SDS011;53696;52.738;4.752;2023-04-24T12:20:29;9.52;;;4.07;;
34583;SDS011;53696;52.738;4.752;2023-04-24T12:22:58;4.55;;;1.80;;
34583;SDS011;53696;52.738;4.752;2023-04-24T12:25:27;12.05;;;3.17;;
34583;SDS011;53696;52.738;4.752;2023-04-24T12:28:08;12.70;;;3.25;;
34583;SDS011;53696;52.738;4.752;2023-04-24T12:30:39;16.25;;;4.15;;
34583;SDS011;53696;52.738;4.752;2023-04-24T12:33:10;10.55;;;3.28;;
34583;SDS011;53696;52.738;4.752;2023-04-24T12:35:39;10.18;;;3.20;;
34583;SDS011;53696;52.738;4.752;2023-04-24T12:38:08;14.90;;;4.55;;
34583;SDS011;53696;52.738;4.752;2023-04-24T12:40:39;14.07;;;3.35;;
34583;SDS011;53696;52.738;4.752;2023-04-24T12:43:13;19.15;;;4.38;;
34583;SDS011;53696;52.738;4.752;2023-04-24T12:45:41;9.60;;;3.53;;
34583;SDS011;53696;52.738;4.752;2023-04-24T12:48:10;17.85;;;4.70;;
34583;SDS011;53696;52.738;4.752;2023-04-24T12:50:40;11.95;;;3.45;;
34583;SDS011;53696;52.738;4.752;2023-04-24T12:53:11;22.63;;;4.25;;
34583;SDS011;53696;52.738;4.752;2023-04-24T12:55:39;15.02;;;3.40;;
34583;SDS011;53696;52.738;4.752;2023-04-24T12:58:07;15.25;;;3.10;;
34583;SDS011;53696;52.738;4.752;2023-04-24T13:00:35;11.57;;;3.70;;
34583;SDS011;53696;52.738;4.752;2023-04-24T13:03:03;14.88;;;4.05;;
34583;SDS011;53696;52.738;4.752;2023-04-24T13:05:33;13.20;;;3.40;;
34583;SDS011;53696;52.738;4.752;2023-04-24T13:08:02;15.65;;;3.92;;
34583;SDS011;53696;52.738;4.752;2023-04-24T13:10:31;16.73;;;3.53;;
34583;SDS011;53696;52.738;4.752;2023-04-24T13:12:58;13.30;;;2.90;;
34583;SDS011;53696;52.738;4.752;2023-04-24T13:15:26;13.10;;;3.20;;
34583;SDS011;53696;52.738;4.752;2023-04-24T13:17:54;18.73;;;3.45;;
34583;SDS011;53696;52.738;4.752;2023-04-24T13:20:22;14.48;;;3.20;;
34583;SDS011;53696;52.738;4.752;2023-04-24T13:22:51;11.45;;;3.33;;
34583;SDS011;53696;52.738;4.752;2023-04-24T13:25:19;11.75;;;3.25;;
34583;SDS011;53696;52.738;4.752;2023-04-24T13:27:48;12.30;;;4.03;;
34583;SDS011;53696;52.738;4.752;2023-04-24T13:30:17;13.00;;;3.10;;
34583;SDS011;53696;52.738;4.752;2023-04-24T13:32:45;11.05;;;2.90;;
34583;SDS011;53696;52.738;4.752;2023-04-24T13:35:13;10.82;;;2.90;;
34583;SDS011;53696;52.738;4.752;2023-04-24T13:37:41;9.65;;;2.70;;
34583;SDS011;53696;52.738;4.752;2023-04-24T13:40:11;12.40;;;3.35;;
34583;SDS011;53696;52.738;4.752;2023-04-24T13:42:39;5.78;;;2.35;;
34583;SDS011;53696;52.738;4.752;2023-04-24T13:45:08;10.45;;;3.40;;
34583;SDS011;53696;52.738;4.752;2023-04-24T13:47:49;11.25;;;3.22;;
34583;SDS011;53696;52.738;4.752;2023-04-24T13:50:18;8.60;;;2.63;;
34583;SDS011;53696;52.738;4.752;2023-04-24T13:52:46;13.82;;;3.83;;
34583;SDS011;53696;52.738;4.752;2023-04-24T13:55:16;11.02;;;3.40;;
34583;SDS011;53696;52.738;4.752;2023-04-24T13:57:45;12.02;;;3.05;;
34583;SDS011;53696;52.738;4.752;2023-04-24T14:00:14;9.25;;;2.72;;
34583;SDS011;53696;52.738;4.752;2023-04-24T14:02:43;6.63;;;2.58;;
34583;SDS011;53696;52.738;4.752;2023-04-24T14:05:12;17.80;;;3.50;;
34583;SDS011;53696;52.738;4.752;2023-04-24T14:07:41;10.68;;;2.67;;
34583;SDS011;53696;52.738;4.752;2023-04-24T14:10:09;9.48;;;2.70;;
34583;SDS011;53696;52.738;4.752;2023-04-24T14:12:39;7.53;;;2.72;;
34583;SDS011;53696;52.738;4.752;2023-04-24T14:15:07;12.80;;;2.55;;
34583;SDS011;53696;52.738;4.752;2023-04-24T14:17:36;8.65;;;2.95;;
34583;SDS011;53696;52.738;4.752;2023-04-24T14:20:05;10.02;;;3.35;;
34583;SDS011;53696;52.738;4.752;2023-04-24T14:22:36;13.05;;;4.03;;
34583;SDS011;53696;52.738;4.752;2023-04-24T14:25:04;7.47;;;3.40;;
34583;SDS011;53696;52.738;4.752;2023-04-24T14:27:33;7.82;;;2.60;;
34583;SDS011;53696;52.738;4.752;2023-04-24T14:30:04;6.68;;;2.67;;
34583;SDS011;53696;52.738;4.752;2023-04-24T14:32:34;6.78;;;2.20;;
34583;SDS011;53696;52.738;4.752;2023-04-24T14:35:03;10.75;;;2.85;;
34583;SDS011;53696;52.738;4.752;2023-04-24T14:37:32;10.52;;;3.05;;
34583;SDS011;53696;52.738;4.752;2023-04-24T14:40:02;9.57;;;2.17;;
34583;SDS011;53696;52.738;4.752;2023-04-24T14:42:36;15.15;;;3.78;;
34583;SDS011;53696;52.738;4.752;2023-04-24T14:45:07;29.00;;;4.30;;
34583;SDS011;53696;52.738;4.752;2023-04-24T14:47:36;9.02;;;2.70;;
34583;SDS011;53696;52.738;4.752;2023-04-24T14:50:05;9.05;;;2.25;;
34583;SDS011;53696;52.738;4.752;2023-04-24T14:52:36;9.05;;;2.38;;
34583;SDS011;53696;52.738;4.752;2023-04-24T14:55:04;8.90;;;2.00;;
34583;SDS011;53696;52.738;4.752;2023-04-24T14:57:33;8.88;;;2.35;;
34583;SDS011;53696;52.738;4.752;2023-04-24T15:00:02;7.10;;;2.15;;
34583;SDS011;53696;52.738;4.752;2023-04-24T15:02:33;17.30;;;2.60;;